createdAt,value
2016-10-07T00:00:39.500Z,50.92
2016-10-07T00:01:20.177Z,51.11
2016-10-07T00:02:00.843Z,50.92
2016-10-07T00:02:41.568Z,50.92
2016-10-07T00:03:22.237Z,51.01
2016-10-07T00:04:02.966Z,50.92
2016-10-07T00:04:43.653Z,51.11
2016-10-07T00:05:24.350Z,51.21
2016-10-07T00:06:05.020Z,51.31
2016-10-07T00:06:45.683Z,51.11
2016-10-07T00:07:26.373Z,51.5
2016-10-07T00:08:07.025Z,51.11
2016-10-07T00:08:47.689Z,51.01
2016-10-07T00:09:28.388Z,51.01
2016-10-07T00:10:09.061Z,51.11
2016-10-07T00:10:49.731Z,51.21
2016-10-07T00:11:30.395Z,50.79
2016-10-07T00:12:11.052Z,51.11
2016-10-07T00:12:51.724Z,51.4
2016-10-07T00:13:32.459Z,51.59
2016-10-07T00:14:13.083Z,51.31
2016-10-07T00:14:53.805Z,50.92
2016-10-07T00:15:34.513Z,50.92
2016-10-07T00:16:15.257Z,51.21
2016-10-07T00:16:55.915Z,50.92
2016-10-07T00:17:36.602Z,50.92
2016-10-07T00:18:17.312Z,50.82
2016-10-07T00:18:57.931Z,50.92
2016-10-07T00:19:38.636Z,50.92
2016-10-07T00:20:19.300Z,51.59
2016-10-07T00:20:59.998Z,51.4
2016-10-07T00:21:40.650Z,51.47
2016-10-07T00:22:21.329Z,51.4
2016-10-07T00:23:01.995Z,51.31
2016-10-07T00:23:42.688Z,51.4
2016-10-07T00:24:23.395Z,51.4
2016-10-07T00:25:04.091Z,51.31
2016-10-07T00:25:44.784Z,51.4
2016-10-07T00:26:25.515Z,51.31
2016-10-07T00:27:06.174Z,51.4
2016-10-07T00:27:46.881Z,51.21
2016-10-07T00:28:27.565Z,51.31
2016-10-07T00:29:08.270Z,51.31
2016-10-07T00:29:48.933Z,51.21
2016-10-07T00:30:29.598Z,51.11
2016-10-07T00:31:10.254Z,51.4
2016-10-07T00:31:50.908Z,51.01
2016-10-07T00:32:31.583Z,50.92
2016-10-07T00:33:12.265Z,51.31
2016-10-07T00:33:52.902Z,51.21
2016-10-07T00:34:33.659Z,50.82
2016-10-07T00:35:14.344Z,51.01
2016-10-07T00:35:55.045Z,51.11
2016-10-07T00:36:35.736Z,51.5
2016-10-07T00:37:16.422Z,51.11
2016-10-07T00:37:57.086Z,51.01
2016-10-07T00:38:37.732Z,51.31
2016-10-07T00:39:18.412Z,51.21
2016-10-07T00:39:59.141Z,51.11
2016-10-07T00:40:39.852Z,51.31
2016-10-07T00:41:20.492Z,51.5
2016-10-07T00:42:01.202Z,51.4
2016-10-07T00:42:41.917Z,51.4
2016-10-07T00:43:22.580Z,51.5
2016-10-07T00:44:03.282Z,51.21
2016-10-07T00:44:43.953Z,51.4
2016-10-07T00:45:24.633Z,51.31
2016-10-07T00:46:05.322Z,51.59
2016-10-07T00:46:46.007Z,51.4
2016-10-07T00:47:26.687Z,51.4
2016-10-07T00:48:07.323Z,51.4
2016-10-07T00:48:48.028Z,51.31
2016-10-07T00:49:28.696Z,51.21
2016-10-07T00:50:09.420Z,51.4
2016-10-07T00:50:50.106Z,51.5
2016-10-07T00:51:30.782Z,51.59
2016-10-07T00:52:11.439Z,51.4
2016-10-07T00:52:52.158Z,51.5
2016-10-07T00:53:32.804Z,51.5
2016-10-07T00:54:13.502Z,51.21
2016-10-07T00:54:54.162Z,51.31
2016-10-07T00:55:34.822Z,51.11
2016-10-07T00:56:15.533Z,51.5
2016-10-07T00:56:56.168Z,51.5
2016-10-07T00:57:36.851Z,51.01
2016-10-07T00:58:17.583Z,51.4
2016-10-07T00:58:58.259Z,51.31
2016-10-07T00:59:38.943Z,51.4
2016-10-07T01:00:19.641Z,51.21
2016-10-07T01:01:00.312Z,51.31
2016-10-07T01:01:41.036Z,51.01
2016-10-07T01:02:21.788Z,51.4
2016-10-07T01:03:02.465Z,51.31
2016-10-07T01:03:43.171Z,51.11
2016-10-07T01:04:23.828Z,51.01
2016-10-07T01:05:04.545Z,51.31
2016-10-07T01:05:45.180Z,51.37
2016-10-07T01:06:25.847Z,51.21
2016-10-07T01:07:06.502Z,51.11
2016-10-07T01:07:47.224Z,51.21
2016-10-07T01:08:27.881Z,51.4
2016-10-07T01:09:08.583Z,51.5
2016-10-07T01:09:49.281Z,51.69
2016-10-07T01:10:29.963Z,52.08
2016-10-07T01:11:10.648Z,51.59
2016-10-07T01:11:51.298Z,51.59
2016-10-07T01:12:31.991Z,51.59
2016-10-07T01:13:12.654Z,51.5
2016-10-07T01:13:53.317Z,51.4
2016-10-07T01:14:34.063Z,51.69
2016-10-07T01:15:14.757Z,51.69
2016-10-07T01:15:55.433Z,51.4
2016-10-07T01:16:36.150Z,51.5
2016-10-07T01:17:16.859Z,51.5
2016-10-07T01:17:57.530Z,51.59
2016-10-07T01:18:38.287Z,51.79
2016-10-07T01:19:18.946Z,51.79
2016-10-07T01:19:59.626Z,52.37
2016-10-07T01:20:40.346Z,51.69
2016-10-07T01:21:21.043Z,51.69
2016-10-07T01:22:01.728Z,51.79
2016-10-07T01:22:42.386Z,52.08
2016-10-07T01:23:23.085Z,51.79
2016-10-07T01:24:03.800Z,51.89
2016-10-07T01:24:44.508Z,51.69
2016-10-07T01:25:25.181Z,51.98
2016-10-07T01:26:05.893Z,51.98
2016-10-07T01:26:46.610Z,51.79
2016-10-07T01:27:27.297Z,52.37
2016-10-07T01:28:07.997Z,51.89
2016-10-07T01:28:48.720Z,52.18
2016-10-07T01:29:29.370Z,52.37
2016-10-07T01:30:10.067Z,52.28
2016-10-07T01:30:50.752Z,52.37
2016-10-07T01:31:31.404Z,52.47
2016-10-07T01:32:12.065Z,52.37
2016-10-07T01:32:52.714Z,52.37
2016-10-07T01:33:33.397Z,52.08
2016-10-07T01:34:14.098Z,52.28
2016-10-07T01:34:54.827Z,51.79
2016-10-07T01:35:35.562Z,52.28
2016-10-07T01:36:16.219Z,52.28
2016-10-07T01:36:56.922Z,52.08
2016-10-07T01:37:37.579Z,52.28
2016-10-07T01:38:18.225Z,52.18
2016-10-07T01:38:58.942Z,52.47
2016-10-07T01:39:39.594Z,52.28
2016-10-07T01:40:20.255Z,52.37
2016-10-07T01:41:00.980Z,52.37
2016-10-07T01:41:41.679Z,52.18
2016-10-07T01:42:22.370Z,52.18
2016-10-07T01:43:03.076Z,52.28
2016-10-07T01:43:43.789Z,51.89
2016-10-07T01:44:24.430Z,51.98
2016-10-07T01:45:05.126Z,52.28
2016-10-07T01:45:45.796Z,52.18
2016-10-07T01:46:26.509Z,52.18
2016-10-07T01:47:07.198Z,52.08
2016-10-07T01:47:47.908Z,52.18
2016-10-07T01:48:28.610Z,52.08
2016-10-07T01:49:09.319Z,52.56
2016-10-07T01:49:49.985Z,52.18
2016-10-07T01:50:30.667Z,51.89
2016-10-07T01:51:11.332Z,52.18
2016-10-07T01:51:52.062Z,52.18
2016-10-07T01:52:32.763Z,52.28
2016-10-07T01:53:13.466Z,52.28
2016-10-07T01:53:54.138Z,52.28
2016-10-07T01:54:34.815Z,52.18
2016-10-07T01:55:15.516Z,52.28
2016-10-07T01:55:56.248Z,52.25
2016-10-07T01:56:36.962Z,52.28
2016-10-07T01:57:17.623Z,52.18
2016-10-07T01:57:58.336Z,52.18
2016-10-07T01:58:39.020Z,52.28
2016-10-07T01:59:19.727Z,52.18
2016-10-07T02:00:00.439Z,52.18
2016-10-07T02:00:41.116Z,52.37
2016-10-07T02:01:21.826Z,52.28
2016-10-07T02:02:02.562Z,52.28
2016-10-07T02:02:43.210Z,52.28
2016-10-07T02:03:23.893Z,52.18
2016-10-07T02:04:04.602Z,52.37
2016-10-07T02:04:45.311Z,52.28
2016-10-07T02:05:25.981Z,52.28
2016-10-07T02:06:06.671Z,52.08
2016-10-07T02:06:47.364Z,52.18
2016-10-07T02:07:28.042Z,52.18
2016-10-07T02:08:08.738Z,52.18
2016-10-07T02:08:49.470Z,52.37
2016-10-07T02:09:30.126Z,52.37
2016-10-07T02:10:10.824Z,52.18
2016-10-07T02:10:51.473Z,52.18
2016-10-07T02:11:32.164Z,52.28
2016-10-07T02:12:12.871Z,52.28
2016-10-07T02:12:53.584Z,52.18
2016-10-07T02:13:34.280Z,52.28
2016-10-07T02:14:14.982Z,52.37
2016-10-07T02:14:55.634Z,52.47
2016-10-07T02:15:36.346Z,52.08
2016-10-07T02:16:16.986Z,52.18
2016-10-07T02:16:57.637Z,52.18
2016-10-07T02:17:38.334Z,52.28
2016-10-07T02:18:19.004Z,52.18
2016-10-07T02:18:59.718Z,52.18
2016-10-07T02:19:40.412Z,52.18
2016-10-07T02:20:21.104Z,52.28
2016-10-07T02:21:01.761Z,52.18
2016-10-07T02:21:42.446Z,52.37
2016-10-07T02:22:23.145Z,52.08
2016-10-07T02:23:03.803Z,52.18
2016-10-07T02:23:44.451Z,52.37
2016-10-07T02:24:25.093Z,52.18
2016-10-07T02:25:05.791Z,52.18
2016-10-07T02:25:46.483Z,52.18
2016-10-07T02:26:27.211Z,52.28
2016-10-07T02:27:07.955Z,52.37
2016-10-07T02:27:48.637Z,52.18
2016-10-07T02:28:29.329Z,52.18
2016-10-07T02:29:09.984Z,52.28
2016-10-07T02:29:50.634Z,52.18
2016-10-07T02:30:31.315Z,52.37
2016-10-07T02:31:12.010Z,52.28
2016-10-07T02:31:52.655Z,52.18
2016-10-07T02:32:33.316Z,52.28
2016-10-07T02:33:14.025Z,52.18
2016-10-07T02:33:54.727Z,52.37
2016-10-07T02:34:35.439Z,52.18
2016-10-07T02:35:16.113Z,52.18
2016-10-07T02:35:56.840Z,52.28
2016-10-07T02:36:37.573Z,51.98
2016-10-07T02:37:18.249Z,52.18
2016-10-07T02:37:58.901Z,52.28
2016-10-07T02:38:39.567Z,52.37
2016-10-07T02:39:20.229Z,52.08
2016-10-07T02:40:00.947Z,52.18
2016-10-07T02:40:41.650Z,52.18
2016-10-07T02:41:22.333Z,52.37
2016-10-07T02:42:02.995Z,52.18
2016-10-07T02:42:43.664Z,52.37
2016-10-07T02:43:24.305Z,52.37
2016-10-07T02:44:04.984Z,52.47
2016-10-07T02:44:45.626Z,52.37
2016-10-07T02:45:26.271Z,52.37
2016-10-07T02:46:06.965Z,52.47
2016-10-07T02:46:47.633Z,52.47
2016-10-07T02:47:28.351Z,52.37
2016-10-07T02:48:09.047Z,52.28
2016-10-07T02:48:49.706Z,52.66
2016-10-07T02:49:30.426Z,52.64
2016-10-07T02:50:11.147Z,51.98
2016-10-07T02:50:51.800Z,52.54
2016-10-07T02:51:32.525Z,52.56
2016-10-07T02:52:13.198Z,52.66
2016-10-07T02:52:53.849Z,52.56
2016-10-07T02:53:34.515Z,52.86
2016-10-07T02:54:15.157Z,52.76
2016-10-07T02:54:55.839Z,52.47
2016-10-07T02:55:36.496Z,52.66
2016-10-07T02:56:17.189Z,52.56
2016-10-07T02:56:57.898Z,52.56
2016-10-07T02:57:38.598Z,52.76
2016-10-07T02:58:19.256Z,52.56
2016-10-07T02:58:59.958Z,52.47
2016-10-07T02:59:40.643Z,52.66
2016-10-07T03:00:21.322Z,52.47
2016-10-07T03:01:01.959Z,52.66
2016-10-07T03:01:42.691Z,52.86
2016-10-07T03:02:23.362Z,52.47
2016-10-07T03:03:04.069Z,52.66
2016-10-07T03:03:44.742Z,52.56
2016-10-07T03:04:25.451Z,52.76
2016-10-07T03:05:06.167Z,52.66
2016-10-07T03:05:46.821Z,52.66
2016-10-07T03:06:27.488Z,52.66
2016-10-07T03:07:08.198Z,52.56
2016-10-07T03:07:48.873Z,52.66
2016-10-07T03:08:29.557Z,52.86
2016-10-07T03:09:10.246Z,52.56
2016-10-07T03:09:50.866Z,52.66
2016-10-07T03:10:31.526Z,52.66
2016-10-07T03:11:12.227Z,52.95
2016-10-07T03:11:52.850Z,52.66
2016-10-07T03:12:33.557Z,52.66
2016-10-07T03:13:14.212Z,52.76
2016-10-07T03:13:54.881Z,52.56
2016-10-07T03:14:35.600Z,52.56
2016-10-07T03:15:16.328Z,52.66
2016-10-07T03:15:57.026Z,52.86
2016-10-07T03:16:37.716Z,52.86
2016-10-07T03:17:18.415Z,52.56
2016-10-07T03:17:59.103Z,52.95
2016-10-07T03:18:39.773Z,52.76
2016-10-07T03:19:20.477Z,52.56
2016-10-07T03:20:01.136Z,52.66
2016-10-07T03:20:41.853Z,52.56
2016-10-07T03:21:22.485Z,52.86
2016-10-07T03:22:03.198Z,52.66
2016-10-07T03:22:43.886Z,52.86
2016-10-07T03:23:24.543Z,52.56
2016-10-07T03:24:05.281Z,52.66
2016-10-07T03:24:45.915Z,52.66
2016-10-07T03:25:26.619Z,52.95
2016-10-07T03:26:07.321Z,52.44
2016-10-07T03:26:47.962Z,52.66
2016-10-07T03:27:28.653Z,52.86
2016-10-07T03:28:09.348Z,52.76
2016-10-07T03:28:50.034Z,52.66
2016-10-07T03:29:30.742Z,52.95
2016-10-07T03:30:11.452Z,52.66
2016-10-07T03:30:52.120Z,52.86
2016-10-07T03:31:32.807Z,52.86
2016-10-07T03:32:13.470Z,52.56
2016-10-07T03:32:54.126Z,52.86
2016-10-07T03:33:35.368Z,52.95
2016-10-07T03:34:16.046Z,52.66
2016-10-07T03:34:56.751Z,52.66
2016-10-07T03:35:37.458Z,52.56
2016-10-07T03:36:18.142Z,52.66
2016-10-07T03:36:58.801Z,52.56
2016-10-07T03:37:39.510Z,52.47
2016-10-07T03:38:20.216Z,52.95
2016-10-07T03:39:00.852Z,52.76
2016-10-07T03:39:42.219Z,52.86
2016-10-07T03:40:22.242Z,52.66
2016-10-07T03:41:02.920Z,52.66
2016-10-07T03:41:43.654Z,52.66
2016-10-07T03:42:24.344Z,52.86
2016-10-07T03:43:05.011Z,52.95
2016-10-07T03:43:45.675Z,52.86
2016-10-07T03:44:26.358Z,53.05
2016-10-07T03:45:07.076Z,52.86
2016-10-07T03:45:47.779Z,52.76
2016-10-07T03:46:28.460Z,52.95
2016-10-07T03:47:09.151Z,52.86
2016-10-07T03:47:49.812Z,52.95
2016-10-07T03:48:30.523Z,53.05
2016-10-07T03:49:11.244Z,53.63
2016-10-07T03:49:51.873Z,53.24
2016-10-07T03:50:32.554Z,53.05
2016-10-07T03:51:13.208Z,52.86
2016-10-07T03:51:53.850Z,53.05
2016-10-07T03:52:34.577Z,53.05
2016-10-07T03:53:15.237Z,53.24
2016-10-07T03:53:55.893Z,53.63
2016-10-07T03:54:36.603Z,53.63
2016-10-07T03:55:17.299Z,53.63
2016-10-07T03:55:57.968Z,53.63
2016-10-07T03:56:38.625Z,53.24
2016-10-07T03:57:19.347Z,53.73
2016-10-07T03:58:00.050Z,53.53
2016-10-07T03:58:40.743Z,53.63
2016-10-07T03:59:21.456Z,53.63
2016-10-07T04:00:02.173Z,53.24
2016-10-07T04:00:42.849Z,53.05
2016-10-07T04:01:23.516Z,53.34
2016-10-07T04:02:04.202Z,53.53
2016-10-07T04:02:44.853Z,53.63
2016-10-07T04:03:25.510Z,53.63
2016-10-07T04:04:06.203Z,53.63
2016-10-07T04:04:46.846Z,53.53
2016-10-07T04:05:27.553Z,53.73
2016-10-07T04:06:08.200Z,53.63
2016-10-07T04:06:48.920Z,53.63
2016-10-07T04:07:29.618Z,53.63
2016-10-07T04:08:10.315Z,53.53
2016-10-07T04:08:50.997Z,53.63
2016-10-07T04:09:31.636Z,53.63
2016-10-07T04:10:12.315Z,53.63
2016-10-07T04:10:52.977Z,53.15
2016-10-07T04:11:33.632Z,53.15
2016-10-07T04:12:14.307Z,53.15
2016-10-07T04:12:54.977Z,53.15
2016-10-07T04:13:35.643Z,53.15
2016-10-07T04:14:16.327Z,53.34
2016-10-07T04:14:57.024Z,53.15
2016-10-07T04:15:37.708Z,53.15
2016-10-07T04:16:18.391Z,53.34
2016-10-07T04:16:59.071Z,53.24
2016-10-07T04:17:39.696Z,53.53
2016-10-07T04:18:20.398Z,53.15
2016-10-07T04:19:01.084Z,53.24
2016-10-07T04:19:41.781Z,52.76
2016-10-07T04:20:22.461Z,53.15
2016-10-07T04:21:03.188Z,53.15
2016-10-07T04:21:43.876Z,53.44
2016-10-07T04:22:24.567Z,53.24
2016-10-07T04:23:05.265Z,53.24
2016-10-07T04:23:45.947Z,53.15
2016-10-07T04:24:26.689Z,52.95
2016-10-07T04:25:07.386Z,53.24
2016-10-07T04:25:48.082Z,53.34
2016-10-07T04:26:28.777Z,53.63
2016-10-07T04:27:09.480Z,53.15
2016-10-07T04:27:50.148Z,52.86
2016-10-07T04:28:30.806Z,53.44
2016-10-07T04:29:11.521Z,53.24
2016-10-07T04:29:52.193Z,53.34
2016-10-07T04:30:32.892Z,52.95
2016-10-07T04:31:13.562Z,53.15
2016-10-07T04:31:54.294Z,52.86
2016-10-07T04:32:34.964Z,53.34
2016-10-07T04:33:15.626Z,53.24
2016-10-07T04:33:56.291Z,53.34
2016-10-07T04:34:36.989Z,53.34
2016-10-07T04:35:17.661Z,53.05
2016-10-07T04:35:58.399Z,53.15
2016-10-07T04:36:39.097Z,53.24
2016-10-07T04:37:19.789Z,53.24
2016-10-07T04:38:00.500Z,53.15
2016-10-07T04:38:41.211Z,53.34
2016-10-07T04:39:21.871Z,53.05
2016-10-07T04:40:02.535Z,53.24
2016-10-07T04:40:43.202Z,52.95
2016-10-07T04:41:23.870Z,53.34
2016-10-07T04:42:04.560Z,53.34
2016-10-07T04:42:45.266Z,53.05
2016-10-07T04:43:25.903Z,53.34
2016-10-07T04:44:06.568Z,53.15
2016-10-07T04:44:47.215Z,53.34
2016-10-07T04:45:27.885Z,53.24
2016-10-07T04:46:08.565Z,53.34
2016-10-07T04:46:49.259Z,53.34
2016-10-07T04:47:29.921Z,53.34
2016-10-07T04:48:10.606Z,53.34
2016-10-07T04:48:51.302Z,52.86
2016-10-07T04:49:31.958Z,53.15
2016-10-07T04:50:12.642Z,53.24
2016-10-07T04:50:53.303Z,52.95
2016-10-07T04:51:34.001Z,53.24
2016-10-07T04:52:14.685Z,53.34
2016-10-07T04:52:55.382Z,53.15
2016-10-07T04:53:36.055Z,53.34
2016-10-07T04:54:16.704Z,53.24
2016-10-07T04:54:57.391Z,53.44
2016-10-07T04:55:38.065Z,53.24
2016-10-07T04:56:18.807Z,53.24
2016-10-07T04:56:59.462Z,53.24
2016-10-07T04:57:40.147Z,53.24
2016-10-07T04:58:20.815Z,53.34
2016-10-07T04:59:01.516Z,53.34
2016-10-07T04:59:42.224Z,53.24
2016-10-07T05:00:22.916Z,53.34
2016-10-07T05:01:03.608Z,53.05
2016-10-07T05:01:44.298Z,53.24
2016-10-07T05:02:24.925Z,53.24
2016-10-07T05:03:05.565Z,53.44
2016-10-07T05:03:46.286Z,53.15
2016-10-07T05:04:27.022Z,53.44
2016-10-07T05:05:07.745Z,53.53
2016-10-07T05:05:48.419Z,53.24
2016-10-07T05:06:29.150Z,53.44
2016-10-07T05:07:09.848Z,53.24
2016-10-07T05:07:50.570Z,53.44
2016-10-07T05:08:31.244Z,53.44
2016-10-07T05:09:11.878Z,53.53
2016-10-07T05:09:52.561Z,53.53
2016-10-07T05:10:33.227Z,53.53
2016-10-07T05:11:13.906Z,53.24
2016-10-07T05:11:54.561Z,53.34
2016-10-07T05:12:35.273Z,53.44
2016-10-07T05:13:15.916Z,53.44
2016-10-07T05:13:56.633Z,53.53
2016-10-07T05:14:37.331Z,53.34
2016-10-07T05:15:18.037Z,53.34
2016-10-07T05:15:58.669Z,53.44
2016-10-07T05:16:39.360Z,53.24
2016-10-07T05:17:20.007Z,53.53
2016-10-07T05:18:00.677Z,53.44
2016-10-07T05:18:41.367Z,53.34
2016-10-07T05:19:22.101Z,53.44
2016-10-07T05:20:02.811Z,53.24
2016-10-07T05:20:43.524Z,53.44
2016-10-07T05:21:24.189Z,53.44
2016-10-07T05:22:04.885Z,53.44
2016-10-07T05:22:45.529Z,53.44
2016-10-07T05:23:26.210Z,53.63
2016-10-07T05:24:06.919Z,53.44
2016-10-07T05:24:47.556Z,53.44
2016-10-07T05:25:28.240Z,53.44
2016-10-07T05:26:08.934Z,53.24
2016-10-07T05:26:49.606Z,53.63
2016-10-07T05:27:30.296Z,53.53
2016-10-07T05:28:10.979Z,53.44
2016-10-07T05:28:51.682Z,53.24
2016-10-07T05:29:32.317Z,53.44
2016-10-07T05:30:13.068Z,53.63
2016-10-07T05:30:53.788Z,53.73
2016-10-07T05:31:34.499Z,53.73
2016-10-07T05:32:15.179Z,53.83
2016-10-07T05:32:55.862Z,53.53
2016-10-07T05:33:36.532Z,53.44
2016-10-07T05:34:17.184Z,53.34
2016-10-07T05:34:57.903Z,53.44
2016-10-07T05:35:38.558Z,53.44
2016-10-07T05:36:19.245Z,53.63
2016-10-07T05:36:59.967Z,53.44
2016-10-07T05:37:40.698Z,53.44
2016-10-07T05:38:21.330Z,53.63
2016-10-07T05:39:02.007Z,53.44
2016-10-07T05:39:42.665Z,53.73
2016-10-07T05:40:23.396Z,53.73
2016-10-07T05:41:04.140Z,53.83
2016-10-07T05:41:44.838Z,53.83
2016-10-07T05:42:25.507Z,53.73
2016-10-07T05:43:06.213Z,53.73
2016-10-07T05:43:46.921Z,54.11
2016-10-07T05:44:27.611Z,53.92
2016-10-07T05:45:08.274Z,53.63
2016-10-07T05:45:48.927Z,53.73
2016-10-07T05:46:29.611Z,53.73
2016-10-07T05:47:10.290Z,53.73
2016-10-07T05:47:50.944Z,53.24
2016-10-07T05:48:31.592Z,53.44
2016-10-07T05:49:12.285Z,53.15
2016-10-07T05:49:52.959Z,53.63
2016-10-07T05:50:33.662Z,53.73
2016-10-07T05:51:14.306Z,53.53
2016-10-07T05:51:54.974Z,53.63
2016-10-07T05:52:35.624Z,53.44
2016-10-07T05:53:16.325Z,53.53
2016-10-07T05:53:57.035Z,53.63
2016-10-07T05:54:37.699Z,53.63
2016-10-07T05:55:18.406Z,53.63
2016-10-07T05:55:59.067Z,53.92
2016-10-07T05:56:39.762Z,53.63
2016-10-07T05:57:20.430Z,53.73
2016-10-07T05:58:01.161Z,53.63
2016-10-07T05:58:41.885Z,53.44
2016-10-07T05:59:22.598Z,53.34
2016-10-07T06:00:03.291Z,53.83
2016-10-07T06:00:43.965Z,53.24
2016-10-07T06:01:24.609Z,53.83
2016-10-07T06:02:05.321Z,53.83
2016-10-07T06:02:45.997Z,53.24
2016-10-07T06:03:26.663Z,53.53
2016-10-07T06:04:07.371Z,53.34
2016-10-07T06:04:48.033Z,53.53
2016-10-07T06:05:28.741Z,53.44
2016-10-07T06:06:09.482Z,53.44
2016-10-07T06:06:50.181Z,53.44
2016-10-07T06:07:30.832Z,53.44
2016-10-07T06:08:11.561Z,53.44
2016-10-07T06:08:52.276Z,53.24
2016-10-07T06:09:32.995Z,53.44
2016-10-07T06:10:13.738Z,53.24
2016-10-07T06:10:54.385Z,53.44
2016-10-07T06:11:35.070Z,53.44
2016-10-07T06:12:15.782Z,53.24
2016-10-07T06:12:56.486Z,53.34
2016-10-07T06:13:37.221Z,53.44
2016-10-07T06:14:17.852Z,53.44
2016-10-07T06:14:58.526Z,53.53
2016-10-07T06:15:39.233Z,53.63
2016-10-07T06:16:19.914Z,53.44
2016-10-07T06:17:00.579Z,53.44
2016-10-07T06:17:41.293Z,53.44
2016-10-07T06:18:21.973Z,53.44
2016-10-07T06:19:02.647Z,53.44
2016-10-07T06:19:43.386Z,53.44
2016-10-07T06:20:24.078Z,53.44
2016-10-07T06:21:04.796Z,54.41
2016-10-07T06:21:45.417Z,55.96
2016-10-07T06:22:26.083Z,57.22
2016-10-07T06:23:06.796Z,57.87
2016-10-07T06:23:47.538Z,58.36
2016-10-07T06:24:28.266Z,57.29
2016-10-07T06:25:08.913Z,58.04
2016-10-07T06:25:49.609Z,58.01
2016-10-07T06:26:30.261Z,58.01
2016-10-07T06:27:11.024Z,58.2
2016-10-07T06:27:51.732Z,57.11
2016-10-07T06:28:32.436Z,57.01
2016-10-07T06:29:13.120Z,56.98
2016-10-07T06:29:53.840Z,56.4
2016-10-07T06:30:34.526Z,56.6
2016-10-07T06:31:15.225Z,56.21
2016-10-07T06:31:55.957Z,56.11
2016-10-07T06:32:36.674Z,56.28
2016-10-07T06:33:17.445Z,55.7
2016-10-07T06:33:58.098Z,55.79
2016-10-07T06:34:38.891Z,55.47
2016-10-07T06:35:19.568Z,56.05
2016-10-07T06:36:00.249Z,56.25
2016-10-07T06:36:40.987Z,56.63
2016-10-07T06:37:21.713Z,56.73
2016-10-07T06:38:02.409Z,56.47
2016-10-07T06:38:43.118Z,55.29
2016-10-07T06:39:23.790Z,54.77
2016-10-07T06:40:04.496Z,55.74
2016-10-07T06:40:45.179Z,56.13
2016-10-07T06:41:25.852Z,56.03
2016-10-07T06:42:06.624Z,56.61
2016-10-07T06:42:47.310Z,56.22
2016-10-07T06:43:27.982Z,56.51
2016-10-07T06:44:08.665Z,56.13
2016-10-07T06:44:49.337Z,55.65
2016-10-07T06:45:30.047Z,55.35
2016-10-07T06:46:10.827Z,55.07
2016-10-07T06:46:51.501Z,54.97
2016-10-07T06:47:32.283Z,54.97
2016-10-07T06:48:12.983Z,54.1
2016-10-07T06:48:53.706Z,53.91
2016-10-07T06:49:34.462Z,54.49
2016-10-07T06:50:15.118Z,54
2016-10-07T06:50:55.806Z,54
2016-10-07T06:51:36.544Z,53.81
2016-10-07T06:52:17.264Z,53.42
2016-10-07T06:52:58.025Z,53.61
2016-10-07T06:53:38.670Z,53.61
2016-10-07T06:54:19.332Z,53.42
2016-10-07T06:55:00.052Z,52.94
2016-10-07T06:55:40.796Z,52.94
2016-10-07T06:56:21.545Z,52.45
2016-10-07T06:57:02.237Z,53.23
2016-10-07T06:57:42.974Z,53.11
2016-10-07T06:58:23.703Z,52.91
2016-10-07T06:59:04.407Z,52.72
2016-10-07T06:59:45.107Z,53.49
2016-10-07T07:00:25.782Z,53.78
2016-10-07T07:01:06.450Z,53.2
2016-10-07T07:01:47.128Z,53.11
2016-10-07T07:02:27.852Z,52.65
2016-10-07T07:03:08.530Z,52.23
2016-10-07T07:03:49.252Z,52.04
2016-10-07T07:04:29.950Z,52.23
2016-10-07T07:05:10.656Z,52.81
2016-10-07T07:05:51.308Z,52.33
2016-10-07T07:06:31.989Z,52.4
2016-10-07T07:07:12.723Z,52.33
2016-10-07T07:07:53.452Z,51.85
2016-10-07T07:08:34.101Z,52.59
2016-10-07T07:09:14.776Z,52.89
2016-10-07T07:09:55.477Z,52.62
2016-10-07T07:10:36.205Z,52.33
2016-10-07T07:11:16.928Z,51.17
2016-10-07T07:11:57.636Z,51.95
2016-10-07T07:12:38.474Z,53.88
2016-10-07T07:13:19.130Z,55.81
2016-10-07T07:14:00.019Z,56.2
2016-10-07T07:14:40.727Z,56.29
2016-10-07T07:15:21.429Z,56.58
2016-10-07T07:16:02.116Z,57.16
2016-10-07T07:16:42.830Z,58.03
2016-10-07T07:17:23.625Z,57.29
2016-10-07T07:18:04.327Z,57.77
2016-10-07T07:18:44.995Z,58.22
2016-10-07T07:19:25.654Z,58.8
2016-10-07T07:20:06.371Z,58.42
2016-10-07T07:20:47.117Z,58.03
2016-10-07T07:21:27.811Z,59
2016-10-07T07:22:08.507Z,58.03
2016-10-07T07:22:49.178Z,58.12
2016-10-07T07:23:29.879Z,58.03
2016-10-07T07:24:10.585Z,58.29
2016-10-07T07:24:51.253Z,58.03
2016-10-07T07:25:31.934Z,58
2016-10-07T07:26:12.615Z,57.62
2016-10-07T07:26:53.310Z,58
2016-10-07T07:27:34.037Z,57.71
2016-10-07T07:28:14.690Z,57.52
2016-10-07T07:28:55.418Z,57.52
2016-10-07T07:29:36.188Z,57.23
2016-10-07T07:30:16.904Z,57.32
2016-10-07T07:30:57.635Z,56.26
2016-10-07T07:31:38.308Z,56.46
2016-10-07T07:32:18.979Z,56.84
2016-10-07T07:32:59.655Z,56.74
2016-10-07T07:33:40.358Z,56.74
2016-10-07T07:34:21.092Z,57.29
2016-10-07T07:35:01.774Z,57.52
2016-10-07T07:35:42.518Z,57.23
2016-10-07T07:36:23.223Z,56.74
2016-10-07T07:37:03.923Z,56.74
2016-10-07T07:37:44.598Z,56.26
2016-10-07T07:38:25.299Z,56.65
2016-10-07T07:39:06.006Z,56.46
2016-10-07T07:39:46.737Z,56.04
2016-10-07T07:40:27.433Z,56.52
2016-10-07T07:41:08.145Z,56.62
2016-10-07T07:41:48.803Z,55.94
2016-10-07T07:42:29.480Z,56.33
2016-10-07T07:43:10.233Z,55.66
2016-10-07T07:43:50.964Z,55.78
2016-10-07T07:44:32.180Z,55.98
2016-10-07T07:45:12.903Z,55.4
2016-10-07T07:45:53.628Z,54.6
2016-10-07T07:46:34.335Z,55.56
2016-10-07T07:47:15.034Z,55.66
2016-10-07T07:47:55.797Z,55.18
2016-10-07T07:48:36.498Z,55.01
2016-10-07T07:49:17.152Z,54.72
2016-10-07T07:49:57.879Z,55.2
2016-10-07T07:50:38.595Z,54.82
2016-10-07T07:51:19.327Z,54.98
2016-10-07T07:52:00.058Z,54.6
2016-10-07T07:52:40.748Z,55.18
2016-10-07T07:53:21.391Z,54.88
2016-10-07T07:54:02.082Z,54.79
2016-10-07T07:54:42.794Z,55.08
2016-10-07T07:55:23.496Z,55.18
2016-10-07T07:56:04.233Z,55.08
2016-10-07T07:56:44.896Z,55.18
2016-10-07T07:57:25.602Z,54.88
2016-10-07T07:58:06.307Z,54.79
2016-10-07T07:58:47.014Z,54.79
2016-10-07T07:59:27.716Z,55.27
2016-10-07T08:00:08.446Z,55.18
2016-10-07T08:00:49.153Z,54.88
2016-10-07T08:01:29.817Z,54.88
2016-10-07T08:02:10.549Z,54.5
2016-10-07T08:02:51.208Z,54.98
2016-10-07T08:03:31.880Z,54.98
2016-10-07T08:04:12.649Z,53.73
2016-10-07T08:04:53.330Z,54.21
2016-10-07T08:05:34.059Z,53.83
2016-10-07T08:06:14.731Z,54.4
2016-10-07T08:06:55.470Z,53.92
2016-10-07T08:07:36.148Z,53.73
2016-10-07T08:08:16.808Z,53.83
2016-10-07T08:08:57.546Z,53.53
2016-10-07T08:09:38.194Z,54.02
2016-10-07T08:10:18.915Z,54.02
2016-10-07T08:10:59.656Z,53.73
2016-10-07T08:11:40.334Z,53.92
2016-10-07T08:12:20.993Z,54.02
2016-10-07T08:13:01.783Z,54.98
2016-10-07T08:13:42.506Z,54.02
2016-10-07T08:14:23.233Z,54.02
2016-10-07T08:15:03.952Z,53.63
2016-10-07T08:15:44.720Z,53.83
2016-10-07T08:16:25.435Z,53.63
2016-10-07T08:17:06.188Z,53.73
2016-10-07T08:17:46.973Z,53.63
2016-10-07T08:18:27.729Z,53.73
2016-10-07T08:19:08.474Z,53.92
2016-10-07T08:19:49.214Z,53.25
2016-10-07T08:20:29.987Z,53.05
2016-10-07T08:21:10.701Z,53.53
2016-10-07T08:21:51.457Z,53.05
2016-10-07T08:22:32.217Z,52.95
2016-10-07T08:23:12.950Z,52.95
2016-10-07T08:23:53.680Z,53.25
2016-10-07T08:24:34.382Z,52.09
2016-10-07T08:25:15.115Z,52.19
2016-10-07T08:25:55.811Z,52.76
2016-10-07T08:26:36.460Z,53.15
2016-10-07T08:27:17.189Z,53.15
2016-10-07T08:27:57.875Z,53.15
2016-10-07T08:28:38.606Z,53.34
2016-10-07T08:29:19.315Z,54.02
2016-10-07T08:29:59.980Z,55.08
2016-10-07T08:30:40.658Z,55.46
2016-10-07T08:31:21.397Z,55.08
2016-10-07T08:32:02.127Z,54.88
2016-10-07T08:32:42.815Z,54.4
2016-10-07T08:33:23.524Z,53.63
2016-10-07T08:34:04.264Z,53.53
2016-10-07T08:34:44.951Z,53.66
2016-10-07T08:35:25.587Z,53.27
2016-10-07T08:36:06.338Z,53.83
2016-10-07T08:36:46.996Z,53.75
2016-10-07T08:37:27.707Z,53.83
2016-10-07T08:38:08.398Z,53.63
2016-10-07T08:38:49.035Z,53.44
2016-10-07T08:39:29.786Z,52.95
2016-10-07T08:40:10.516Z,52.86
2016-10-07T08:40:51.209Z,52.57
2016-10-07T08:41:31.895Z,52.95
2016-10-07T08:42:12.615Z,53.15
2016-10-07T08:42:53.308Z,52.57
2016-10-07T08:43:34.050Z,53.34
2016-10-07T08:44:14.771Z,53.34
2016-10-07T08:44:55.448Z,52.95
2016-10-07T08:45:36.171Z,53.44